createdAt,value
2023-04-09T00:01:11.736Z,17.15
2023-04-09T00:03:39.261Z,17.10
2023-04-09T00:06:06.574Z,17.48
2023-04-09T00:08:33.154Z,16.38
2023-04-09T00:11:00.035Z,17.27
2023-04-09T00:13:38.437Z,17.40
2023-04-09T00:16:06.721Z,16.38
2023-04-09T00:18:33.240Z,16.95
2023-04-09T00:20:59.734Z,16.17
2023-04-09T00:23:26.130Z,16.67
2023-04-09T00:25:52.746Z,16.75
2023-04-09T00:28:19.172Z,16.92
2023-04-09T00:30:45.811Z,18.27
2023-04-09T00:33:12.212Z,17.05
2023-04-09T00:35:38.663Z,17.38
2023-04-09T00:38:05.137Z,17.85
2023-04-09T00:40:31.585Z,17.80
2023-04-09T00:42:58.004Z,18.70
2023-04-09T00:45:24.620Z,18.83
2023-04-09T00:47:51.345Z,21.20
2023-04-09T00:50:17.878Z,22.52
2023-04-09T00:52:44.510Z,21.52
2023-04-09T00:55:10.985Z,21.05
2023-04-09T00:57:37.610Z,21.88
2023-04-09T01:00:04.748Z,22.00
2023-04-09T01:02:31.350Z,21.95
2023-04-09T01:04:58.415Z,21.30
2023-04-09T01:07:42.460Z,21.38
2023-04-09T01:10:18.124Z,21.92
2023-04-09T01:13:43.704Z,22.65
2023-04-09T01:16:12.406Z,20.45
2023-04-09T01:18:58.261Z,22.77
2023-04-09T01:21:29.625Z,23.90
2023-04-09T01:24:32.467Z,24.85
2023-04-09T01:27:09.094Z,24.00
2023-04-09T01:29:41.757Z,21.88
2023-04-09T01:32:09.324Z,20.42
2023-04-09T01:34:36.668Z,19.40
2023-04-09T01:37:03.740Z,20.33
2023-04-09T01:39:30.604Z,21.23
2023-04-09T01:41:58.129Z,23.15
2023-04-09T01:44:26.273Z,22.27
2023-04-09T01:46:54.345Z,27.00
2023-04-09T01:49:21.716Z,24.65
2023-04-09T01:51:48.570Z,25.10
2023-04-09T01:54:16.500Z,23.38
2023-04-09T01:56:44.574Z,21.98
2023-04-09T01:59:11.420Z,22.88
2023-04-09T02:01:54.854Z,21.35
2023-04-09T02:04:34.243Z,21.85
2023-04-09T02:07:12.926Z,21.75
2023-04-09T02:09:40.674Z,22.83
2023-04-09T02:12:12.275Z,22.13
2023-04-09T02:14:40.054Z,22.77
2023-04-09T02:17:06.750Z,22.25
2023-04-09T02:19:44.654Z,21.75
2023-04-09T02:22:12.146Z,21.40
2023-04-09T02:24:40.334Z,20.65
2023-04-09T02:27:07.304Z,21.38
2023-04-09T02:29:34.173Z,19.85
2023-04-09T02:32:00.696Z,20.70
2023-04-09T02:34:27.687Z,22.50
2023-04-09T02:36:54.093Z,20.52
2023-04-09T02:39:20.564Z,22.63
2023-04-09T02:41:47.000Z,22.08
2023-04-09T02:44:13.401Z,20.40
2023-04-09T02:46:40.927Z,23.15
2023-04-09T02:49:07.493Z,20.58
2023-04-09T02:51:37.027Z,22.40
2023-04-09T02:54:04.542Z,22.90
2023-04-09T02:56:31.166Z,22.88
2023-04-09T02:58:57.555Z,23.27
2023-04-09T03:01:24.040Z,23.77
2023-04-09T03:03:50.710Z,22.55
2023-04-09T03:06:18.546Z,23.23
2023-04-09T03:08:45.227Z,22.83
2023-04-09T03:11:11.671Z,22.63
2023-04-09T03:13:38.031Z,21.10
2023-04-09T03:16:04.733Z,21.48
2023-04-09T03:18:31.340Z,22.88
2023-04-09T03:20:57.738Z,24.05
2023-04-09T03:23:24.150Z,21.17
2023-04-09T03:26:00.370Z,23.58
2023-04-09T03:28:26.765Z,21.60
2023-04-09T03:30:53.216Z,20.63
2023-04-09T03:33:19.789Z,22.50
2023-04-09T03:35:46.264Z,22.63
2023-04-09T03:38:12.787Z,22.85
2023-04-09T03:40:39.221Z,23.10
2023-04-09T03:43:05.673Z,22.27
2023-04-09T03:45:32.074Z,22.95
2023-04-09T03:47:58.538Z,21.10
2023-04-09T03:50:24.929Z,22.23
2023-04-09T03:52:51.398Z,21.38
2023-04-09T03:55:17.766Z,22.52
2023-04-09T03:57:44.170Z,21.60
2023-04-09T04:00:10.998Z,21.63
2023-04-09T04:02:37.645Z,19.58
2023-04-09T04:05:04.429Z,21.15
2023-04-09T04:07:30.852Z,24.88
2023-04-09T04:09:57.442Z,21.48
2023-04-09T04:12:23.877Z,21.38
2023-04-09T04:14:50.268Z,20.83
2023-04-09T04:17:16.684Z,23.10
2023-04-09T04:19:43.124Z,23.80
2023-04-09T04:22:09.523Z,21.27
2023-04-09T04:24:35.962Z,21.70
2023-04-09T04:27:02.502Z,19.60
2023-04-09T04:29:28.905Z,21.27
2023-04-09T04:31:55.449Z,21.35
2023-04-09T04:34:21.878Z,20.77
2023-04-09T04:36:48.249Z,21.35
2023-04-09T04:39:14.679Z,20.17
2023-04-09T04:41:41.068Z,20.92
2023-04-09T04:44:07.595Z,18.48
2023-04-09T04:46:34.002Z,19.15
2023-04-09T04:49:00.378Z,18.67
2023-04-09T04:51:27.781Z,19.42
2023-04-09T04:53:54.185Z,18.15
2023-04-09T04:56:20.576Z,19.45
2023-04-09T04:58:47.341Z,18.80
2023-04-09T05:01:13.805Z,19.33
2023-04-09T05:03:40.244Z,20.15
2023-04-09T05:06:06.684Z,20.08
2023-04-09T05:08:33.106Z,18.75
2023-04-09T05:10:59.485Z,19.38
2023-04-09T05:13:25.934Z,18.25
2023-04-09T05:15:52.623Z,18.17
2023-04-09T05:18:19.052Z,18.67
2023-04-09T05:20:45.736Z,16.95
2023-04-09T05:23:12.513Z,18.00
2023-04-09T05:25:39.417Z,17.00
2023-04-09T05:28:06.308Z,18.05
2023-04-09T05:30:32.727Z,16.42
2023-04-09T05:32:59.203Z,16.77
2023-04-09T05:35:25.843Z,17.02
2023-04-09T05:37:52.287Z,17.80
2023-04-09T05:40:18.694Z,15.98
2023-04-09T05:42:46.199Z,15.30
2023-04-09T05:45:12.639Z,15.10
2023-04-09T05:47:39.338Z,14.32
2023-04-09T05:50:06.451Z,15.43
2023-04-09T05:52:32.906Z,15.02
2023-04-09T05:54:59.284Z,14.52
2023-04-09T05:57:25.893Z,14.88
2023-04-09T05:59:52.797Z,14.95
2023-04-09T06:02:19.306Z,13.93
2023-04-09T06:04:46.080Z,13.52
2023-04-09T06:07:14.203Z,13.88
2023-04-09T06:09:40.908Z,14.80
2023-04-09T06:12:07.325Z,14.25
2023-04-09T06:14:34.649Z,13.00
2023-04-09T06:17:01.218Z,14.38
2023-04-09T06:19:28.026Z,14.00
2023-04-09T06:21:55.070Z,14.18
2023-04-09T06:24:21.602Z,14.00
2023-04-09T06:26:48.106Z,13.45
2023-04-09T06:29:14.530Z,12.80
2023-04-09T06:31:41.140Z,12.82
2023-04-09T06:34:08.309Z,12.48
2023-04-09T06:36:37.557Z,11.38
2023-04-09T06:39:04.124Z,11.93
2023-04-09T06:41:32.363Z,11.50
2023-04-09T06:43:59.450Z,12.13
2023-04-09T06:46:26.827Z,11.75
2023-04-09T06:48:53.775Z,12.23
2023-04-09T06:51:20.404Z,10.90
2023-04-09T06:53:48.301Z,10.48
2023-04-09T06:56:15.608Z,10.85
2023-04-09T06:58:42.048Z,10.20
2023-04-09T07:01:09.120Z,10.40
2023-04-09T07:03:35.909Z,9.88
2023-04-09T07:06:02.471Z,9.40
2023-04-09T07:08:29.045Z,8.38
2023-04-09T07:10:55.465Z,8.63
2023-04-09T07:13:22.516Z,8.63
2023-04-09T07:15:48.994Z,9.25
2023-04-09T07:18:15.732Z,8.57
2023-04-09T07:20:42.179Z,8.05
2023-04-09T07:23:08.596Z,8.30
2023-04-09T07:25:35.239Z,7.97
2023-04-09T07:28:01.730Z,7.22
2023-04-09T07:30:28.210Z,7.85
2023-04-09T07:32:55.157Z,7.90
2023-04-09T07:35:22.534Z,7.22
2023-04-09T07:37:49.306Z,7.75
2023-04-09T07:40:16.174Z,6.72
2023-04-09T07:42:42.664Z,7.00
2023-04-09T07:45:09.312Z,6.47
2023-04-09T07:47:36.479Z,7.10
2023-04-09T07:50:03.015Z,6.85
2023-04-09T07:52:29.458Z,6.85
2023-04-09T07:54:56.228Z,6.93
2023-04-09T07:57:22.810Z,6.30
2023-04-09T07:59:49.474Z,7.07
2023-04-09T08:02:16.162Z,7.20
2023-04-09T08:04:42.819Z,6.80
2023-04-09T08:07:09.558Z,7.05
2023-04-09T08:09:35.970Z,7.50
2023-04-09T08:12:02.566Z,7.25
2023-04-09T08:14:29.059Z,7.35
2023-04-09T08:16:56.425Z,8.40
2023-04-09T08:19:22.978Z,7.10
2023-04-09T08:21:49.632Z,6.80
2023-04-09T08:24:16.592Z,7.03
2023-04-09T08:26:43.376Z,7.45
2023-04-09T08:29:11.504Z,7.20
2023-04-09T08:31:44.276Z,7.60
2023-04-09T08:34:11.093Z,7.65
2023-04-09T08:36:37.526Z,7.63
2023-04-09T08:39:04.256Z,8.65
2023-04-09T08:41:30.861Z,7.72
2023-04-09T08:43:59.496Z,7.43
2023-04-09T08:46:27.355Z,7.28
2023-04-09T08:48:54.487Z,8.45
2023-04-09T08:51:23.297Z,6.72
2023-04-09T08:53:55.397Z,7.30
2023-04-09T08:56:22.317Z,7.30
2023-04-09T08:58:48.931Z,6.88
2023-04-09T09:01:24.790Z,7.22
2023-04-09T09:04:01.815Z,6.95
2023-04-09T09:06:32.794Z,7.60
2023-04-09T09:09:02.150Z,7.47
2023-04-09T09:11:30.259Z,7.55
2023-04-09T09:14:06.449Z,7.50
2023-04-09T09:16:42.657Z,7.20
2023-04-09T09:19:10.665Z,6.78
2023-04-09T09:21:38.580Z,7.65
2023-04-09T09:24:17.125Z,7.18
2023-04-09T09:26:43.767Z,6.85
2023-04-09T09:29:13.545Z,7.28
2023-04-09T09:31:51.776Z,6.93
2023-04-09T09:34:19.951Z,7.55
2023-04-09T09:36:47.030Z,7.40
2023-04-09T09:39:17.268Z,7.05
2023-04-09T09:41:45.358Z,7.05
2023-04-09T09:44:13.211Z,7.25
2023-04-09T09:46:41.358Z,6.90
2023-04-09T09:49:09.158Z,6.65
2023-04-09T09:51:41.151Z,6.82
2023-04-09T09:54:12.844Z,6.93
2023-04-09T09:56:43.404Z,7.10
2023-04-09T09:59:24.916Z,7.28
2023-04-09T10:01:58.272Z,7.75
2023-04-09T10:04:28.682Z,7.72
2023-04-09T10:06:56.779Z,7.03
2023-04-09T10:09:23.637Z,7.57
2023-04-09T10:11:50.100Z,7.43
2023-04-09T10:14:17.976Z,7.00
2023-04-09T10:16:44.520Z,7.43
2023-04-09T10:19:15.206Z,7.38
2023-04-09T10:21:54.794Z,6.70
2023-04-09T10:24:22.040Z,7.57
2023-04-09T10:26:48.818Z,7.38
2023-04-09T10:29:16.733Z,7.25
2023-04-09T10:32:06.434Z,8.07
2023-04-09T10:34:39.797Z,7.63
2023-04-09T10:37:14.671Z,7.20
2023-04-09T10:39:45.624Z,7.72
2023-04-09T10:42:16.185Z,7.88
2023-04-09T10:44:42.842Z,7.43
2023-04-09T10:47:10.359Z,7.43
2023-04-09T10:49:38.326Z,8.20
2023-04-09T10:52:11.906Z,7.68
2023-04-09T10:54:40.087Z,7.88
2023-04-09T10:57:18.157Z,7.60
2023-04-09T10:59:47.235Z,7.07
2023-04-09T11:02:28.264Z,7.40
2023-04-09T11:05:16.405Z,7.47
2023-04-09T11:07:53.098Z,7.40
2023-04-09T11:10:21.359Z,6.93
2023-04-09T11:12:50.814Z,7.72
2023-04-09T11:15:22.132Z,7.05
2023-04-09T11:17:49.358Z,7.72
2023-04-09T11:20:24.726Z,7.63
2023-04-09T11:22:52.756Z,7.47
2023-04-09T11:25:27.170Z,7.72
2023-04-09T11:27:54.141Z,6.95
2023-04-09T11:30:20.813Z,7.93
2023-04-09T11:32:48.810Z,8.75
2023-04-09T11:35:17.279Z,7.60
2023-04-09T11:37:44.958Z,7.50
2023-04-09T11:40:29.501Z,7.50
2023-04-09T11:42:56.956Z,7.55
2023-04-09T11:45:25.606Z,7.32
2023-04-09T11:47:52.240Z,8.65
2023-04-09T11:50:19.569Z,8.55
2023-04-09T11:52:46.846Z,8.10
2023-04-09T11:55:23.381Z,8.50
2023-04-09T11:57:52.100Z,8.98
2023-04-09T12:00:19.730Z,8.75
2023-04-09T12:02:48.425Z,8.88
2023-04-09T12:05:23.069Z,8.50
2023-04-09T12:07:56.199Z,8.48
2023-04-09T12:10:30.660Z,8.43
2023-04-09T12:13:11.571Z,9.57
2023-04-09T12:15:43.621Z,8.82
2023-04-09T12:18:11.960Z,9.00
2023-04-09T12:20:44.100Z,9.52
2023-04-09T12:23:11.687Z,9.63
2023-04-09T12:25:40.837Z,9.43
2023-04-09T12:28:12.065Z,8.38
2023-04-09T12:30:38.506Z,9.80
2023-04-09T12:33:05.650Z,8.93
2023-04-09T12:35:32.624Z,9.23
2023-04-09T12:38:01.990Z,9.88
2023-04-09T12:40:28.381Z,9.25
2023-04-09T12:42:54.903Z,9.13
2023-04-09T12:45:22.195Z,8.88
2023-04-09T12:47:49.117Z,8.68
2023-04-09T12:50:16.404Z,9.30
2023-04-09T12:52:43.860Z,9.32
2023-04-09T12:55:11.242Z,9.25
2023-04-09T12:57:38.745Z,9.27
2023-04-09T13:00:07.581Z,9.77
2023-04-09T13:02:34.503Z,10.40
2023-04-09T13:05:01.109Z,9.85
2023-04-09T13:07:29.411Z,10.13
2023-04-09T13:09:57.112Z,10.40
2023-04-09T13:12:24.557Z,9.98
2023-04-09T13:14:54.752Z,10.75
2023-04-09T13:17:21.661Z,9.70
2023-04-09T13:19:48.430Z,10.50
2023-04-09T13:22:15.048Z,10.73
2023-04-09T13:24:43.086Z,10.27
2023-04-09T13:27:11.537Z,9.90
2023-04-09T13:29:38.598Z,10.20
2023-04-09T13:32:07.352Z,11.20
2023-04-09T13:34:35.775Z,10.40
2023-04-09T13:37:05.748Z,10.05
2023-04-09T13:39:32.859Z,10.57
2023-04-09T13:42:10.092Z,10.18
2023-04-09T13:44:45.670Z,10.40
2023-04-09T13:47:14.825Z,11.10
2023-04-09T13:49:42.350Z,11.00
2023-04-09T13:52:11.202Z,10.32
2023-04-09T13:54:38.093Z,11.57
2023-04-09T13:57:04.568Z,11.65
2023-04-09T13:59:31.068Z,11.15
2023-04-09T14:01:58.793Z,10.85
2023-04-09T14:04:25.352Z,10.27
2023-04-09T14:06:52.103Z,9.95
2023-04-09T14:09:18.484Z,11.00
2023-04-09T14:11:45.346Z,10.18
2023-04-09T14:14:11.815Z,10.63
2023-04-09T14:16:40.472Z,10.85
2023-04-09T14:19:07.356Z,11.13
2023-04-09T14:21:34.185Z,10.65
2023-04-09T14:24:01.071Z,9.95
2023-04-09T14:26:29.066Z,10.73
2023-04-09T14:28:55.728Z,10.52
2023-04-09T14:31:22.502Z,9.75
2023-04-09T14:33:50.358Z,10.00
2023-04-09T14:36:17.848Z,10.98
2023-04-09T14:38:44.420Z,9.95
2023-04-09T14:41:10.839Z,10.05
2023-04-09T14:43:37.765Z,10.70
2023-04-09T14:46:06.396Z,10.43
2023-04-09T14:48:33.088Z,9.73
2023-04-09T14:50:59.762Z,9.50
2023-04-09T14:53:26.257Z,9.40
2023-04-09T14:55:52.737Z,9.75
2023-04-09T14:58:19.271Z,9.52
2023-04-09T15:00:45.683Z,9.27
2023-04-09T15:03:12.557Z,9.23
2023-04-09T15:05:39.106Z,9.23
2023-04-09T15:08:05.907Z,8.80
2023-04-09T15:10:32.354Z,8.70
2023-04-09T15:12:58.727Z,9.38
2023-04-09T15:15:25.225Z,9.65
2023-04-09T15:17:51.688Z,8.70
2023-04-09T15:20:19.128Z,8.55
2023-04-09T15:22:45.592Z,8.43
2023-04-09T15:25:14.228Z,8.75
2023-04-09T15:27:40.940Z,9.43
2023-04-09T15:30:08.205Z,9.82
2023-04-09T15:32:34.683Z,10.07
2023-04-09T15:35:01.356Z,9.48
2023-04-09T15:37:27.987Z,9.68
2023-04-09T15:39:54.528Z,10.05
2023-04-09T15:42:22.880Z,9.48
2023-04-09T15:44:50.386Z,9.88
2023-04-09T15:47:17.261Z,9.00
2023-04-09T15:49:43.729Z,9.43
2023-04-09T15:52:11.624Z,9.10
2023-04-09T15:54:38.101Z,9.20
2023-04-09T15:57:04.787Z,9.15
2023-04-09T15:59:31.328Z,9.02
2023-04-09T16:01:57.830Z,9.57
2023-04-09T16:04:24.333Z,9.05
2023-04-09T16:06:51.174Z,9.20
2023-04-09T16:09:17.778Z,8.88
2023-04-09T16:11:44.553Z,9.07
2023-04-09T16:14:11.322Z,8.68
2023-04-09T16:16:37.785Z,8.20
2023-04-09T16:19:04.482Z,8.95
2023-04-09T16:21:31.084Z,9.63
2023-04-09T16:23:57.563Z,9.10
2023-04-09T16:26:24.469Z,8.30
2023-04-09T16:29:04.088Z,7.78
2023-04-09T16:31:30.589Z,7.78
2023-04-09T16:33:57.069Z,8.70
2023-04-09T16:36:23.628Z,9.00
2023-04-09T16:38:50.449Z,7.65
2023-04-09T16:41:17.095Z,8.10
2023-04-09T16:43:43.891Z,8.60
2023-04-09T16:46:10.860Z,8.82
2023-04-09T16:48:41.645Z,9.30
2023-04-09T16:51:08.321Z,8.52
2023-04-09T16:53:37.640Z,9.10
2023-04-09T16:56:06.598Z,9.02
2023-04-09T16:58:33.020Z,7.63
2023-04-09T17:00:59.503Z,8.32
2023-04-09T17:03:26.110Z,8.05
2023-04-09T17:05:53.757Z,7.57
2023-04-09T17:08:24.520Z,7.70
2023-04-09T17:10:51.862Z,7.80
2023-04-09T17:13:18.365Z,8.00
2023-04-09T17:15:44.778Z,7.63
2023-04-09T17:18:11.511Z,7.88
2023-04-09T17:20:38.058Z,8.07
2023-04-09T17:23:04.608Z,8.00
2023-04-09T17:25:31.065Z,8.65
2023-04-09T17:27:57.972Z,7.68
2023-04-09T17:30:24.484Z,8.13
2023-04-09T17:32:51.139Z,7.40
2023-04-09T17:35:17.786Z,8.20
2023-04-09T17:37:45.111Z,7.57
2023-04-09T17:40:14.296Z,7.65
2023-04-09T17:42:41.282Z,7.68
2023-04-09T17:45:08.660Z,7.55
2023-04-09T17:47:35.303Z,8.52
2023-04-09T17:50:02.045Z,8.23
2023-04-09T17:52:29.459Z,8.35
2023-04-09T17:54:55.845Z,7.70
2023-04-09T17:57:22.343Z,7.78
2023-04-09T17:59:52.300Z,8.25
2023-04-09T18:02:19.112Z,7.22
2023-04-09T18:04:45.954Z,7.80
2023-04-09T18:07:12.578Z,8.15
2023-04-09T18:09:40.426Z,7.10
2023-04-09T18:12:06.858Z,7.53
2023-04-09T18:14:33.500Z,7.45
2023-04-09T18:17:00.078Z,7.72
2023-04-09T18:19:26.728Z,8.02
2023-04-09T18:21:53.324Z,7.47
2023-04-09T18:24:19.884Z,7.28
2023-04-09T18:26:46.514Z,6.88
2023-04-09T18:29:13.873Z,7.53
2023-04-09T18:31:40.320Z,7.43
2023-04-09T18:34:06.935Z,7.22
2023-04-09T18:36:33.767Z,7.10
2023-04-09T18:39:00.431Z,7.50
2023-04-09T18:41:27.424Z,6.90
2023-04-09T18:43:57.106Z,7.22
2023-04-09T18:46:23.855Z,7.28
2023-04-09T18:48:50.446Z,7.18
2023-04-09T18:51:18.857Z,7.72
2023-04-09T18:53:52.691Z,7.57
2023-04-09T18:56:20.399Z,8.00
2023-04-09T18:58:51.839Z,7.55
2023-04-09T19:01:20.005Z,7.20
2023-04-09T19:03:47.637Z,7.60
2023-04-09T19:06:19.205Z,7.30
2023-04-09T19:08:46.783Z,7.10
2023-04-09T19:11:14.554Z,6.78
2023-04-09T19:13:40.984Z,6.70
2023-04-09T19:16:09.398Z,7.10
2023-04-09T19:18:37.352Z,6.82
2023-04-09T19:21:05.316Z,6.28
2023-04-09T19:23:34.092Z,6.45
2023-04-09T19:26:01.600Z,5.80
2023-04-09T19:28:28.863Z,6.75
2023-04-09T19:30:55.860Z,5.90
2023-04-09T19:33:23.555Z,6.25
2023-04-09T19:35:50.899Z,5.72
2023-04-09T19:38:18.662Z,6.20
2023-04-09T19:40:46.328Z,7.20
2023-04-09T19:43:13.670Z,7.05
2023-04-09T19:45:40.891Z,6.85
2023-04-09T19:48:07.566Z,7.03
2023-04-09T19:50:37.377Z,6.43
2023-04-09T19:53:05.987Z,7.03
2023-04-09T19:55:36.574Z,6.72
2023-04-09T20:00:35.400Z,6.28
2023-04-09T20:03:02.997Z,6.70
2023-04-09T20:05:29.862Z,6.47
2023-04-09T20:07:56.503Z,7.25
2023-04-09T20:10:24.021Z,6.50
2023-04-09T20:12:51.428Z,7.70
2023-04-09T20:15:20.202Z,7.55
2023-04-09T20:17:50.670Z,7.95
2023-04-09T20:20:20.864Z,7.68
2023-04-09T20:22:56.656Z,7.28
2023-04-09T20:25:39.430Z,7.85
2023-04-09T20:28:12.239Z,8.30
2023-04-09T20:30:41.948Z,7.57
2023-04-09T20:33:10.915Z,9.10
2023-04-09T20:35:37.620Z,8.25
2023-04-09T20:38:04.129Z,7.40
2023-04-09T20:40:38.066Z,7.95
2023-04-09T20:43:04.961Z,7.57
2023-04-09T20:45:31.444Z,8.27
2023-04-09T20:48:03.866Z,8.48
2023-04-09T20:50:31.038Z,9.65
2023-04-09T20:52:58.995Z,7.85
2023-04-09T20:55:25.865Z,9.65
2023-04-09T20:57:55.214Z,8.32
2023-04-09T21:00:22.226Z,9.90
2023-04-09T21:02:59.309Z,8.80
2023-04-09T21:05:26.670Z,9.23
2023-04-09T21:07:53.878Z,9.57
2023-04-09T21:10:21.422Z,9.95
2023-04-09T21:12:56.757Z,9.38
2023-04-09T21:15:23.152Z,10.25
2023-04-09T21:17:49.891Z,10.07
2023-04-09T21:20:19.646Z,9.60
2023-04-09T21:22:46.180Z,9.48
2023-04-09T21:25:15.126Z,9.45
2023-04-09T21:27:44.753Z,9.23
2023-04-09T21:30:11.643Z,8.75
2023-04-09T21:32:38.630Z,9.00
2023-04-09T21:35:05.828Z,9.88
2023-04-09T21:37:33.684Z,8.98
2023-04-09T21:40:00.326Z,9.65
2023-04-09T21:42:27.559Z,9.60
2023-04-09T21:44:54.011Z,10.30
2023-04-09T21:47:20.827Z,10.00
2023-04-09T21:49:47.346Z,11.45
2023-04-09T21:52:15.058Z,13.35
2023-04-09T21:54:43.132Z,12.50
2023-04-09T21:57:10.822Z,13.10
2023-04-09T21:59:37.597Z,13.30
2023-04-09T22:02:05.058Z,15.55
2023-04-09T22:04:31.671Z,13.15
2023-04-09T22:06:58.273Z,10.48
2023-04-09T22:09:25.299Z,10.13
2023-04-09T22:11:52.862Z,9.77
2023-04-09T22:14:20.288Z,11.02
2023-04-09T22:16:46.763Z,10.35
2023-04-09T22:19:14.203Z,9.63
2023-04-09T22:21:41.437Z,9.98
2023-04-09T22:24:07.976Z,9.63
2023-04-09T22:26:34.493Z,9.93
2023-04-09T22:29:03.901Z,10.20
2023-04-09T22:31:32.285Z,10.05
2023-04-09T22:34:06.910Z,10.38
2023-04-09T22:36:40.004Z,10.75
2023-04-09T22:39:06.367Z,10.75
2023-04-09T22:41:32.856Z,11.10
2023-04-09T22:43:59.246Z,11.85
2023-04-09T22:46:25.859Z,12.30
2023-04-09T22:48:52.365Z,12.07
2023-04-09T22:51:18.813Z,12.60
2023-04-09T22:53:46.664Z,13.07
2023-04-09T22:56:13.397Z,13.55
2023-04-09T22:58:40.287Z,13.07
2023-04-09T23:01:07.046Z,14.23
2023-04-09T23:03:36.802Z,15.32
2023-04-09T23:06:03.905Z,14.20
2023-04-09T23:08:30.342Z,14.70
2023-04-09T23:10:57.007Z,15.15
2023-04-09T23:13:23.376Z,15.23
2023-04-09T23:15:49.928Z,15.40
2023-04-09T23:18:16.394Z,15.35
2023-04-09T23:20:42.840Z,16.15
2023-04-09T23:23:09.355Z,13.18
2023-04-09T23:25:35.755Z,13.15
2023-04-09T23:28:02.133Z,13.13
2023-04-09T23:30:28.536Z,13.05
2023-04-09T23:32:57.704Z,12.55
2023-04-09T23:35:24.330Z,12.13
2023-04-09T23:37:50.891Z,11.30
2023-04-09T23:40:20.279Z,11.75
2023-04-09T23:42:48.053Z,11.52
2023-04-09T23:45:14.582Z,12.50
2023-04-09T23:47:41.359Z,12.90
2023-04-09T23:50:08.508Z,11.00
2023-04-09T23:52:36.868Z,11.88
2023-04-09T23:55:04.834Z,11.15
2023-04-09T23:57:31.367Z,10.98
2023-04-09T23:59:57.759Z,11.50
